Aviation Digital Data Service (ADDS)

Output produced by METARs form (1739 UTC 27 May 2017)
found at http://www.aviationweather.gov/adds/metars/
 
UGKO 271730Z 28011KT 9999 BKN067 17/14 Q1013 R25/09//70 NOSIG
TAF UGKO 271700Z 2718/2818 VRB02KT 9999 SCT040 BKN100 TX25/2812Z TN13/2802Z 
     TEMPO 2718/2720 27014KT
       
UGSB 271730Z 22004KT 9999 FEW015 BKN110 16/15 Q1015 R13/70D NOSIG
TAF UGSB 271700Z 2718/2818 23010KT 9999 FEW017 SCT070 TX20/2811Z TN15/2801Z 
     TEMPO 2718/2724 VRB15KT TSRA FEW009 BKN020CB 
     BECMG 2718/2720 14010KT 
     TEMPO 2718/2803 VRB15KT TSRA SCT010 BKN020CB
       
UGTB 271730Z 35005KT 9999 BKN050CB 19/16 Q1014 R31L/CLRD70 NOSIG
TAF UGTB 271700Z 2718/2818 VRB02KT 9999 SCT050CB TX25/2812Z TN14/2803Z 
     TEMPO 2718/2722 VRB12KT TSRA BKN030CB 
     BECMG 2722/2724 32010G20KT CAVOK 
     PROB40 
     TEMPO 2812/2816 TSRA BKN030CB